Main page
METAR-TAF:

METAR-TAF

Airports :

Sheridan County Airport

Sheridan, Wyoming, United States

latitude: 44-46-10N, longitude: 106-58-08W, elevation: 4018 ft

Current weather observation

The report was made 1 hour and 5 minutes ago, at 00:53 UTC
Wind 7 mph from the South/Southwest
Temperature 41°F
Humidity 56%
Pressure 29.92 in. Hg
Visibility: 10 miles
Clear sky

METAR: KSHR 210053Z AUTO 21006KT 10SM CLR 05/M03 A2992 RMK AO2 SLP156 T00501033

Time: 18:58 (01:58 UTC)

Forecast

The report was made 2 hours and 21 minutes ago, at 23:37 UTC
Forecast valid from 21 at 00 UTC to 21 at 24 UTC
Wind 7 mph from variable directions
Visibility: 6 miles
Few clouds at a height of 10000 ft
Scattered clouds at a height of 20000 ft
From 21 at 0600 UTC
Wind 5 mph from variable directions
Visibility: 6 miles
Few clouds at a height of 10000 ft
Scattered clouds at a height of 20000 ft

TAF: KSHR 202337Z 2100/2124 VRB06KT P6SM FEW100 SCT200 FM210600 VRB04KT P6SM FEW100 SCT200

Weather observations and forecasts of more than 4000 airports (METAR and TAF reports).

The available stations are represented by yellow and red dots on the map.

Hover mouse over dot to see the name of the station.

Then click to see weather observations and forecasts.

To change the map : click on the green buttons with a black cross to zoom in, on the green button with a dash to zoom out, or on the green arrows for adjacent maps.


METAR-TAF: